Time;durP1;ratioP1;P1;durP2;ratioP2;P2;SDS_P1;SDS_P2;PMS_P1;PMS_P2;Temp;Humidity;BMP_temperature;BMP_pressure;BME280_temperature;BME280_humidity;BME280_pressure;Samples;Min_cycle;Max_cycle;Signal;HPM_P1;HPM_P2
2022/01/07 00:00:47;;;;;;;11.27;10.03;;;2.00;99.90;;;;;;4993714;28;20211;-58
2022/01/07 00:03:14;;;;;;;12.23;9.77;;;2.00;99.90;;;;;;4993862;28;20185;-59
2022/01/07 00:05:40;;;;;;;10.33;8.23;;;2.10;99.90;;;;;;4993623;28;20408;-60
2022/01/07 00:08:06;;;;;;;10.27;9.23;;;2.10;99.90;;;;;;4993823;28;20431;-59
2022/01/07 00:10:32;;;;;;;13.87;9.37;;;2.00;99.90;;;;;;4993682;28;20896;-59
2022/01/07 00:12:58;;;;;;;13.80;8.97;;;2.00;99.90;;;;;;4993244;28;20669;-59
2022/01/07 00:15:24;;;;;;;13.77;9.80;;;2.10;99.90;;;;;;4993792;28;20468;-59
2022/01/07 00:17:50;;;;;;;15.27;10.60;;;2.20;99.90;;;;;;4993739;28;20184;-60
2022/01/07 00:20:17;;;;;;;12.17;9.80;;;2.20;99.90;;;;;;4993843;28;20408;-60
2022/01/07 00:22:44;;;;;;;12.87;9.90;;;2.20;99.90;;;;;;4993345;28;20459;-58
2022/01/07 00:25:12;;;;;;;15.40;9.30;;;2.20;99.90;;;;;;4995265;28;20435;-61
2022/01/07 00:27:38;;;;;;;8.43;7.23;;;2.20;99.90;;;;;;4996874;28;20518;-59
2022/01/07 00:30:06;;;;;;;13.13;9.93;;;2.20;99.90;;;;;;4997236;28;20412;-61
2022/01/07 00:32:32;;;;;;;12.40;9.30;;;2.20;99.90;;;;;;4996979;28;20412;-61
2022/01/07 00:34:57;;;;;;;12.43;8.17;;;2.30;99.90;;;;;;4997379;28;20431;-60
2022/01/07 00:37:23;;;;;;;11.43;9.17;;;2.20;99.90;;;;;;4997055;28;20197;-59
2022/01/07 00:39:49;;;;;;;11.27;9.90;;;2.30;99.90;;;;;;4997099;28;20535;-60
2022/01/07 00:42:15;;;;;;;12.83;10.60;;;2.20;99.90;;;;;;4996667;28;20171;-60
2022/01/07 00:44:41;;;;;;;11.13;9.73;;;2.10;99.90;;;;;;4996956;28;20420;-60
2022/01/07 00:47:06;;;;;;;14.00;9.90;;;2.10;99.90;;;;;;4996797;28;20522;-60
2022/01/07 00:49:32;;;;;;;9.90;8.00;;;2.10;99.90;;;;;;4997125;28;20543;-58
2022/01/07 00:51:59;;;;;;;17.37;9.90;;;2.10;99.90;;;;;;4995975;28;20542;-58
2022/01/07 00:54:25;;;;;;;12.07;9.00;;;2.10;99.90;;;;;;4996400;28;20224;-58
2022/01/07 00:56:51;;;;;;;12.00;9.83;;;2.00;99.90;;;;;;4996284;28;20455;-60
2022/01/07 00:59:17;;;;;;;16.73;8.30;;;2.00;99.90;;;;;;4996656;28;20406;-58
2022/01/07 01:01:42;;;;;;;14.10;9.97;;;2.00;99.90;;;;;;4996720;28;20247;-58
2022/01/07 01:04:08;;;;;;;13.00;8.60;;;2.00;99.90;;;;;;4996526;28;20212;-56
2022/01/07 01:06:34;;;;;;;13.43;9.43;;;2.00;99.90;;;;;;4996843;28;20259;-60
2022/01/07 01:09:00;;;;;;;8.90;8.00;;;2.10;99.90;;;;;;4996466;28;20629;-58
2022/01/07 01:11:26;;;;;;;13.60;8.00;;;2.10;99.90;;;;;;4996221;28;20431;-59
2022/01/07 01:13:51;;;;;;;11.37;9.27;;;2.00;99.90;;;;;;4995965;28;20543;-59
2022/01/07 01:16:17;;;;;;;10.10;8.93;;;1.90;99.90;;;;;;4996604;28;20243;-60
2022/01/07 01:18:43;;;;;;;11.23;9.03;;;1.90;99.90;;;;;;4996616;28;20270;-60
2022/01/07 01:21:08;;;;;;;12.67;8.57;;;1.90;99.90;;;;;;4996500;28;20226;-60
2022/01/07 01:23:34;;;;;;;17.63;9.07;;;1.90;99.90;;;;;;4996742;28;20682;-58
2022/01/07 01:25:59;;;;;;;9.50;7.10;;;1.70;99.90;;;;;;4995866;28;20211;-57
2022/01/07 01:28:25;;;;;;;10.70;8.70;;;1.70;99.90;;;;;;4995929;28;20262;-59
2022/01/07 01:30:51;;;;;;;11.60;8.73;;;1.60;99.90;;;;;;4996066;28;20190;-59
2022/01/07 01:33:18;;;;;;;10.53;7.50;;;1.70;99.90;;;;;;4995992;28;20192;-60
2022/01/07 01:35:43;;;;;;;13.40;8.53;;;1.60;99.90;;;;;;4995234;28;20173;-60
2022/01/07 01:38:09;;;;;;;15.10;9.60;;;1.60;99.90;;;;;;4995843;28;20861;-58
2022/01/07 01:40:35;;;;;;;9.13;7.77;;;1.60;99.90;;;;;;4995682;28;20174;-60
2022/01/07 01:43:01;;;;;;;9.80;8.03;;;1.60;99.90;;;;;;4995704;28;20259;-60
2022/01/07 01:45:27;;;;;;;9.87;8.47;;;1.70;99.90;;;;;;4996018;28;20412;-60
2022/01/07 01:47:54;;;;;;;10.03;8.23;;;1.70;99.90;;;;;;4995991;28;20513;-61
2022/01/07 01:50:20;;;;;;;12.67;9.20;;;1.70;99.90;;;;;;4995747;28;20510;-56
2022/01/07 01:52:49;;;;;;;11.37;7.50;;;1.80;99.90;;;;;;4996322;28;20416;-61
2022/01/07 01:55:17;;;;;;;8.23;7.30;;;1.80;99.90;;;;;;4995386;28;20422;-59
2022/01/07 01:57:43;;;;;;;11.47;8.20;;;1.80;99.90;;;;;;4995142;28;20627;-61
2022/01/07 02:00:10;;;;;;;13.30;9.33;;;1.80;99.90;;;;;;4995806;28;20773;-60
2022/01/07 02:02:36;;;;;;;13.03;8.67;;;1.80;99.90;;;;;;4995984;28;20408;-61
2022/01/07 02:05:02;;;;;;;12.20;8.80;;;1.80;99.90;;;;;;4995524;28;20458;-60
2022/01/07 02:07:28;;;;;;;9.63;7.87;;;1.90;99.90;;;;;;4995706;28;20189;-56
2022/01/07 02:09:55;;;;;;;11.00;8.37;;;1.90;99.90;;;;;;4995315;28;20419;-60
2022/01/07 02:12:21;;;;;;;11.87;9.07;;;1.90;99.90;;;;;;4995017;28;20235;-59
2022/01/07 02:14:57;;;;;;;11.87;9.20;;;1.80;99.90;;;;;;4995403;28;20455;-59
2022/01/07 02:17:25;;;;;;;11.47;9.23;;;1.70;99.90;;;;;;4995560;28;20808;-60
2022/01/07 02:19:51;;;;;;;11.30;8.43;;;1.80;99.90;;;;;;4995283;28;20412;-60
2022/01/07 02:22:17;;;;;;;11.03;9.17;;;1.80;99.90;;;;;;4995189;28;20404;-58
2022/01/07 02:24:48;;;;;;;14.30;10.10;;;1.80;99.90;;;;;;4994919;28;21140;-56
2022/01/07 02:27:15;;;;;;;12.43;8.47;;;1.80;99.90;;;;;;4994802;28;20530;-61
2022/01/07 02:29:43;;;;;;;10.23;9.13;;;1.80;99.90;;;;;;4995197;28;20422;-61
2022/01/07 02:32:09;;;;;;;12.80;9.57;;;1.90;99.90;;;;;;4995543;28;20419;-60
2022/01/07 02:34:35;;;;;;;12.10;9.50;;;2.00;99.90;;;;;;4995062;28;20450;-61
2022/01/07 02:37:00;;;;;;;15.63;10.67;;;2.00;99.90;;;;;;4994807;28;20423;-60
2022/01/07 02:39:26;;;;;;;15.37;11.27;;;2.00;99.90;;;;;;4995090;28;20177;-60
2022/01/07 02:41:51;;;;;;;9.60;8.43;;;2.00;99.90;;;;;;4994546;28;20543;-59
2022/01/07 02:44:17;;;;;;;10.10;8.23;;;1.90;99.90;;;;;;4995060;28;20234;-60
2022/01/07 02:46:45;;;;;;;14.40;10.30;;;1.90;99.90;;;;;;4994338;28;20206;-59
2022/01/07 02:49:12;;;;;;;12.33;9.07;;;1.80;99.90;;;;;;4994573;28;20208;-61
2022/01/07 02:51:38;;;;;;;10.60;9.27;;;1.80;99.90;;;;;;4994873;28;20416;-59
2022/01/07 02:54:05;;;;;;;12.73;9.23;;;1.90;99.90;;;;;;4994731;28;20463;-60
2022/01/07 02:59:07;;;;;;;9.10;7.40;;;1.90;99.90;;;;;;4974056;28;20459;-63
2022/01/07 03:01:35;;;;;;;10.30;9.20;;;1.90;99.90;;;;;;4975234;28;20412;-62
2022/01/07 03:04:00;;;;;;;11.47;9.17;;;1.80;99.90;;;;;;4974020;28;20419;-62
2022/01/07 03:06:26;;;;;;;13.27;9.20;;;1.80;99.90;;;;;;4975343;28;20896;-62
2022/01/07 03:08:52;;;;;;;13.83;9.20;;;1.80;99.90;;;;;;4975039;28;20287;-62
2022/01/07 03:11:19;;;;;;;10.03;8.30;;;1.90;99.90;;;;;;4975079;28;20499;-62
2022/01/07 03:13:45;;;;;;;12.60;8.10;;;1.80;99.90;;;;;;4974788;28;20220;-62
2022/01/07 03:16:11;;;;;;;12.50;8.10;;;1.80;99.90;;;;;;4975014;28;20408;-62
2022/01/07 03:18:37;;;;;;;8.27;6.80;;;1.80;99.90;;;;;;4975008;28;20910;-62
2022/01/07 03:21:04;;;;;;;9.47;7.50;;;1.80;99.90;;;;;;4975012;28;20415;-64
2022/01/07 03:23:30;;;;;;;8.97;7.53;;;1.70;99.90;;;;;;4974998;28;20178;-62
2022/01/07 03:25:56;;;;;;;8.73;7.83;;;1.80;99.90;;;;;;4974702;28;20488;-62
2022/01/07 03:28:22;;;;;;;12.03;7.97;;;1.70;99.90;;;;;;4974168;28;20468;-62
2022/01/07 03:30:48;;;;;;;12.90;8.70;;;1.50;99.90;;;;;;4974754;28;20413;-62
2022/01/07 03:33:14;;;;;;;9.40;7.43;;;1.40;99.90;;;;;;4974788;28;20849;-63
2022/01/07 03:35:41;;;;;;;10.27;8.50;;;1.50;99.90;;;;;;4974945;28;20169;-62
2022/01/07 03:38:08;;;;;;;9.50;7.70;;;1.50;99.90;;;;;;4974736;28;20425;-64
2022/01/07 03:40:34;;;;;;;9.90;7.90;;;1.50;99.90;;;;;;4974897;28;20408;-63
2022/01/07 03:43:02;;;;;;;10.97;8.70;;;1.60;99.90;;;;;;4972252;28;20432;-63
2022/01/07 03:45:28;;;;;;;11.60;7.53;;;1.60;99.90;;;;;;4974371;28;20463;-63
2022/01/07 03:47:54;;;;;;;12.17;7.33;;;1.60;99.90;;;;;;4974614;28;20451;-63
2022/01/07 03:50:23;;;;;;;12.30;8.13;;;1.50;99.90;;;;;;4974514;28;20408;-64
2022/01/07 03:52:49;;;;;;;7.17;6.53;;;1.50;99.90;;;;;;4974418;28;20506;-63
2022/01/07 03:55:17;;;;;;;8.63;7.27;;;1.40;99.90;;;;;;4974281;28;20417;-64
2022/01/07 03:57:43;;;;;;;9.13;7.77;;;1.40;99.90;;;;;;4972723;28;20479;-64
2022/01/07 04:00:22;;;;;;;10.23;7.73;;;1.30;99.90;;;;;;4978636;28;20416;-63
2022/01/07 04:02:48;;;;;;;12.23;7.60;;;1.40;99.90;;;;;;4978463;28;20179;-63
2022/01/07 04:05:15;;;;;;;10.77;7.90;;;1.30;99.90;;;;;;4978374;28;20412;-63
2022/01/07 04:07:41;;;;;;;12.93;7.47;;;1.40;99.90;;;;;;4977053;28;20435;-62
2022/01/07 04:10:08;;;;;;;12.90;6.80;;;1.40;99.90;;;;;;4978480;28;20413;-62
2022/01/07 04:12:34;;;;;;;11.03;6.70;;;1.40;99.90;;;;;;4978144;28;20430;-62
2022/01/07 04:15:08;;;;;;;10.13;7.23;;;1.40;99.90;;;;;;4978321;28;20459;-64
2022/01/07 04:17:42;;;;;;;8.53;6.90;;;1.40;99.90;;;;;;4978300;28;20540;-63
2022/01/07 04:20:10;;;;;;;12.40;7.83;;;1.50;99.90;;;;;;4978290;28;20412;-64
2022/01/07 04:22:36;;;;;;;8.47;7.03;;;1.50;99.90;;;;;;4978580;28;20769;-64
2022/01/07 04:25:06;;;;;;;7.97;6.70;;;1.50;99.90;;;;;;4978001;28;20444;-63
2022/01/07 04:27:32;;;;;;;7.63;6.93;;;1.60;99.90;;;;;;4978342;28;20500;-64
2022/01/07 04:29:58;;;;;;;8.83;7.50;;;1.50;99.90;;;;;;4978036;28;20492;-64
2022/01/07 04:32:24;;;;;;;9.33;8.13;;;1.30;99.90;;;;;;4978452;28;20507;-62
2022/01/07 04:34:50;;;;;;;10.57;7.80;;;1.40;99.90;;;;;;4978011;28;20444;-64
2022/01/07 04:37:16;;;;;;;10.47;8.50;;;1.40;99.90;;;;;;4978122;28;20479;-64
2022/01/07 04:39:42;;;;;;;9.27;7.57;;;1.50;99.90;;;;;;4977841;28;20170;-62
2022/01/07 04:42:08;;;;;;;9.90;7.57;;;1.50;99.90;;;;;;4977539;28;20833;-63
2022/01/07 04:44:38;;;;;;;11.00;7.93;;;1.30;99.90;;;;;;4977974;28;20260;-62
2022/01/07 04:47:04;;;;;;;11.67;8.43;;;1.30;99.90;;;;;;4977940;28;20279;-63
2022/01/07 04:49:30;;;;;;;10.60;8.23;;;1.30;99.90;;;;;;4977875;28;20468;-63
2022/01/07 04:51:55;;;;;;;12.10;8.83;;;1.20;99.90;;;;;;4977813;28;20169;-63
2022/01/07 04:54:21;;;;;;;13.73;9.27;;;1.30;99.90;;;;;;4977900;28;20193;-63
2022/01/07 04:56:47;;;;;;;11.80;9.17;;;1.30;99.90;;;;;;4977237;28;20173;-64
2022/01/07 04:59:12;;;;;;;10.00;8.60;;;1.40;99.90;;;;;;4978150;28;20637;-63
2022/01/07 05:01:38;;;;;;;12.83;8.10;;;1.40;99.90;;;;;;4976442;28;20179;-63
2022/01/07 05:04:04;;;;;;;12.50;9.03;;;1.40;99.90;;;;;;4977707;28;20255;-63
2022/01/07 05:06:45;;;;;;;11.07;8.80;;;1.30;99.90;;;;;;4977408;28;20181;-63
2022/01/07 05:09:13;;;;;;;12.00;8.50;;;1.40;99.90;;;;;;4979084;28;20193;-63
2022/01/07 05:11:39;;;;;;;10.73;8.90;;;1.30;99.90;;;;;;4977154;28;20825;-62
2022/01/07 05:14:05;;;;;;;13.30;9.17;;;1.30;99.90;;;;;;4978238;28;20449;-63
2022/01/07 05:16:30;;;;;;;12.50;8.93;;;1.30;99.90;;;;;;4979355;28;20409;-63
2022/01/07 05:18:57;;;;;;;12.83;9.73;;;1.40;99.90;;;;;;4976956;28;20212;-62
2022/01/07 05:21:23;;;;;;;11.27;9.00;;;1.20;99.90;;;;;;4979972;28;20188;-62
2022/01/07 05:23:49;;;;;;;13.23;8.70;;;1.30;99.90;;;;;;4978790;28;20416;-62
2022/01/07 05:26:15;;;;;;;11.57;9.13;;;1.30;99.90;;;;;;4977375;28;20479;-63
2022/01/07 05:28:40;;;;;;;11.40;8.50;;;1.30;99.90;;;;;;4975958;28;20205;-63
2022/01/07 05:31:06;;;;;;;14.37;8.80;;;1.30;99.90;;;;;;4977469;28;20165;-62
2022/01/07 05:33:32;;;;;;;13.83;9.10;;;1.30;99.90;;;;;;4976999;28;20200;-61
2022/01/07 05:35:57;;;;;;;10.83;8.50;;;1.40;99.90;;;;;;4977262;28;20165;-61
2022/01/07 05:38:23;;;;;;;20.23;10.60;;;1.50;99.90;;;;;;4976489;28;20185;-62
2022/01/07 05:40:49;;;;;;;18.00;10.27;;;1.50;99.90;;;;;;4976683;28;20169;-62
2022/01/07 05:43:15;;;;;;;15.40;9.57;;;1.50;99.90;;;;;;4976588;28;20454;-64
2022/01/07 05:45:44;;;;;;;13.60;10.70;;;1.50;99.90;;;;;;4977036;28;20172;-64
2022/01/07 05:48:10;;;;;;;10.23;9.13;;;1.40;99.90;;;;;;4977085;28;20236;-63
2022/01/07 05:50:36;;;;;;;12.57;8.83;;;1.30;99.90;;;;;;4976567;28;20412;-64
2022/01/07 05:53:01;;;;;;;13.80;8.93;;;1.40;99.90;;;;;;4976477;28;20436;-64
2022/01/07 05:55:27;;;;;;;14.37;10.20;;;1.40;99.90;;;;;;4976397;28;20176;-64
2022/01/07 05:57:53;;;;;;;13.97;9.87;;;1.40;99.90;;;;;;4976152;28;20221;-62
2022/01/07 06:00:18;;;;;;;12.93;9.03;;;1.40;99.90;;;;;;4975362;28;20166;-62
2022/01/07 06:02:44;;;;;;;13.40;9.37;;;1.40;99.90;;;;;;4977007;28;20622;-63
2022/01/07 06:05:10;;;;;;;15.53;9.93;;;1.30;99.90;;;;;;4976362;28;20165;-64
2022/01/07 06:07:35;;;;;;;15.63;9.70;;;1.40;99.90;;;;;;4976490;28;20429;-63
2022/01/07 06:10:01;;;;;;;14.67;10.17;;;1.40;99.90;;;;;;4976206;28;20180;-61
2022/01/07 06:12:27;;;;;;;14.60;10.67;;;1.30;99.90;;;;;;4975859;28;20185;-63
2022/01/07 06:14:52;;;;;;;17.57;11.90;;;1.50;99.90;;;;;;4976354;28;20185;-62
2022/01/07 06:17:18;;;;;;;9.90;8.80;;;1.50;99.90;;;;;;4976272;28;20234;-63
2022/01/07 06:19:44;;;;;;;15.80;11.63;;;1.60;99.90;;;;;;4976318;28;20171;-63
2022/01/07 06:22:10;;;;;;;12.70;9.47;;;1.40;99.90;;;;;;4975818;28;20173;-63
2022/01/07 06:24:35;;;;;;;13.97;10.03;;;1.50;99.90;;;;;;4975956;28;20169;-63
2022/01/07 06:27:01;;;;;;;14.03;9.90;;;1.70;99.90;;;;;;4975498;28;20467;-63
2022/01/07 06:29:26;;;;;;;14.73;10.57;;;1.60;99.90;;;;;;4975525;28;20195;-63
2022/01/07 06:31:52;;;;;;;12.50;10.83;;;1.60;99.90;;;;;;4976045;28;20519;-63
2022/01/07 06:34:20;;;;;;;12.83;10.00;;;1.50;99.90;;;;;;4975705;28;20199;-63
2022/01/07 06:36:47;;;;;;;13.27;10.77;;;1.60;99.90;;;;;;4973545;28;20173;-62
2022/01/07 06:39:14;;;;;;;12.60;9.73;;;1.60;99.90;;;;;;4967538;28;20436;-62
2022/01/07 06:41:40;;;;;;;13.23;10.70;;;1.50;99.90;;;;;;4975880;28;20422;-63
2022/01/07 06:44:05;;;;;;;11.30;9.67;;;1.50;99.90;;;;;;4975249;28;20400;-62
2022/01/07 06:46:31;;;;;;;15.03;10.10;;;1.50;99.90;;;;;;4975494;28;20567;-63
2022/01/07 06:48:56;;;;;;;13.87;9.83;;;1.60;99.90;;;;;;4976015;28;20252;-64
2022/01/07 06:51:22;;;;;;;13.03;9.83;;;1.50;99.90;;;;;;4975425;28;20172;-63
2022/01/07 06:53:48;;;;;;;16.70;10.60;;;1.50;99.90;;;;;;4975263;28;20584;-63
2022/01/07 06:56:13;;;;;;;13.90;9.87;;;1.40;99.90;;;;;;4975128;28;20576;-62
2022/01/07 06:58:39;;;;;;;13.57;10.20;;;1.60;99.90;;;;;;4974853;28;20212;-64
2022/01/07 07:01:08;;;;;;;14.00;9.77;;;1.50;99.90;;;;;;4975216;28;20216;-63
2022/01/07 07:03:35;;;;;;;10.93;9.23;;;1.50;99.90;;;;;;4975361;28;20173;-63
2022/01/07 07:06:00;;;;;;;10.80;8.53;;;1.50;99.90;;;;;;4973824;28;20415;-63
2022/01/07 07:08:28;;;;;;;10.93;9.03;;;1.50;99.90;;;;;;4974877;28;20431;-62
2022/01/07 07:10:54;;;;;;;13.60;10.23;;;1.50;99.90;;;;;;4974841;28;20177;-63
2022/01/07 07:13:19;;;;;;;14.50;9.73;;;1.40;99.90;;;;;;4974640;28;20515;-63
2022/01/07 07:15:45;;;;;;;13.20;9.77;;;1.50;99.90;;;;;;4974875;28;20416;-62
2022/01/07 07:18:11;;;;;;;12.17;9.70;;;1.50;99.90;;;;;;4975271;28;20184;-62
2022/01/07 07:20:36;;;;;;;11.70;8.77;;;1.50;99.90;;;;;;4975161;28;20244;-62
2022/01/07 07:23:02;;;;;;;14.73;9.50;;;1.50;99.90;;;;;;4974868;28;20516;-63
2022/01/07 07:25:28;;;;;;;9.80;8.77;;;1.40;99.90;;;;;;4974531;28;20180;-63
2022/01/07 07:27:53;;;;;;;9.87;7.90;;;1.40;99.90;;;;;;4974321;28;20201;-64
2022/01/07 07:30:19;;;;;;;11.33;9.57;;;1.40;99.90;;;;;;4974766;28;20585;-64
2022/01/07 07:32:47;;;;;;;9.93;8.23;;;1.40;99.90;;;;;;4974526;28;20204;-64
2022/01/07 07:37:58;;;;;;;13.20;9.10;;;1.50;99.90;;;;;;4973564;28;20436;-64
2022/01/07 07:40:24;;;;;;;12.60;9.43;;;1.60;99.90;;;;;;4974805;28;20419;-63
2022/01/07 07:42:50;;;;;;;13.90;9.07;;;1.60;99.90;;;;;;4974297;28;20173;-63
2022/01/07 07:45:15;;;;;;;13.30;8.70;;;1.50;99.90;;;;;;4974268;28;20661;-62
2022/01/07 07:47:42;;;;;;;11.37;8.37;;;1.50;99.90;;;;;;4973670;28;20259;-62
2022/01/07 07:50:08;;;;;;;10.23;9.13;;;1.50;99.90;;;;;;4974683;28;20169;-63
2022/01/07 07:52:34;;;;;;;12.50;9.27;;;1.60;99.90;;;;;;4974987;28;20498;-62
2022/01/07 07:54:59;;;;;;;15.10;9.57;;;1.60;99.90;;;;;;4974697;28;20543;-64
2022/01/07 07:57:25;;;;;;;12.63;10.83;;;1.70;99.90;;;;;;4972760;28;20258;-62
2022/01/07 07:59:50;;;;;;;13.00;8.80;;;1.70;99.90;;;;;;4974493;28;20173;-62
2022/01/07 08:02:16;;;;;;;11.17;9.37;;;1.60;99.90;;;;;;4975316;28;20175;-63
2022/01/07 08:04:42;;;;;;;13.70;9.80;;;1.60;99.90;;;;;;4974857;28;20183;-63
2022/01/07 08:07:09;;;;;;;17.17;9.83;;;1.60;99.90;;;;;;4974731;28;20264;-62
2022/01/07 08:09:38;;;;;;;10.70;9.60;;;1.60;99.90;;;;;;4975000;28;20177;-63
2022/01/07 08:12:19;;;;;;;11.00;8.87;;;1.80;99.90;;;;;;4974676;28;20412;-63
2022/01/07 08:17:29;;;;;;;10.37;8.60;;;1.60;99.90;;;;;;4974930;28;20431;-62
2022/01/07 08:19:55;;;;;;;10.40;8.77;;;1.80;99.90;;;;;;4973741;28;20428;-64
2022/01/07 08:22:20;;;;;;;13.87;9.10;;;1.70;99.90;;;;;;4974865;28;20174;-64
2022/01/07 08:24:46;;;;;;;13.90;10.40;;;1.90;99.90;;;;;;4974518;28;20165;-63
2022/01/07 08:27:12;;;;;;;12.10;8.27;;;2.00;99.90;;;;;;4973116;28;20293;-62
2022/01/07 08:29:40;;;;;;;12.10;8.67;;;1.90;99.90;;;;;;4974421;28;20440;-65
2022/01/07 08:34:53;;;;;;;12.87;8.90;;;1.80;99.90;;;;;;4974786;28;20537;-63
2022/01/07 08:37:22;;;;;;;11.43;8.10;;;1.90;99.90;;;;;;4974527;28;20504;-63
2022/01/07 08:39:48;;;;;;;13.43;9.50;;;2.00;99.90;;;;;;4974417;28;20436;-63
2022/01/07 08:42:13;;;;;;;13.53;8.97;;;2.10;99.90;;;;;;4973903;28;20428;-63
2022/01/07 08:44:39;;;;;;;12.90;8.83;;;2.10;99.90;;;;;;4974363;28;20405;-64
2022/01/07 08:47:05;;;;;;;15.50;8.67;;;2.20;99.90;;;;;;4977768;28;20189;-64
2022/01/07 08:49:30;;;;;;;13.23;8.90;;;2.20;99.90;;;;;;4978378;28;20665;-63
2022/01/07 08:51:56;;;;;;;13.33;8.17;;;2.20;99.90;;;;;;4977960;28;20174;-64
2022/01/07 08:54:22;;;;;;;10.03;8.03;;;2.20;99.90;;;;;;4977855;28;20580;-64
2022/01/07 08:56:48;;;;;;;11.50;8.57;;;2.30;99.90;;;;;;4977106;28;20489;-64
2022/01/07 08:59:14;;;;;;;12.17;8.90;;;2.30;99.90;;;;;;5006942;23;20235;-59
2022/01/07 09:01:39;;;;;;;12.63;8.47;;;2.40;99.90;;;;;;4996667;28;20399;-60
2022/01/07 09:04:05;;;;;;;10.47;8.33;;;2.50;99.90;;;;;;4996825;28;20211;-60
2022/01/07 09:06:31;;;;;;;10.70;8.57;;;2.60;99.90;;;;;;4997502;28;20223;-59
2022/01/07 09:08:56;;;;;;;11.00;7.73;;;2.60;99.90;;;;;;4996473;28;20184;-60
2022/01/07 09:11:22;;;;;;;13.03;8.77;;;2.50;99.90;;;;;;4996420;28;20192;-60
2022/01/07 09:13:48;;;;;;;10.70;8.40;;;2.50;99.90;;;;;;4996272;28;20193;-60
2022/01/07 09:16:15;;;;;;;9.73;8.20;;;2.50;99.90;;;;;;4996730;28;20216;-61
2022/01/07 09:18:40;;;;;;;10.17;8.37;;;2.60;99.90;;;;;;4996565;28;20435;-58
2022/01/07 09:21:06;;;;;;;8.13;7.30;;;2.70;99.90;;;;;;4996405;28;20893;-60
2022/01/07 09:23:31;;;;;;;11.43;7.93;;;2.80;99.90;;;;;;4996492;28;20541;-60
2022/01/07 09:25:57;;;;;;;9.50;7.97;;;2.80;99.90;;;;;;4996026;28;20645;-60
2022/01/07 09:28:23;;;;;;;11.23;8.10;;;2.90;99.90;;;;;;4995713;28;20661;-60
2022/01/07 09:30:48;;;;;;;8.47;7.47;;;2.90;99.90;;;;;;4996173;28;20169;-60
2022/01/07 09:33:14;;;;;;;8.67;7.03;;;2.90;99.90;;;;;;4996236;28;20474;-60
2022/01/07 09:35:40;;;;;;;11.00;8.23;;;3.00;99.90;;;;;;4995996;28;20556;-59
2022/01/07 09:38:05;;;;;;;9.33;7.43;;;3.20;99.90;;;;;;4995955;28;20196;-60
2022/01/07 09:40:32;;;;;;;8.23;7.43;;;3.30;99.90;;;;;;4996215;28;20169;-60
2022/01/07 09:43:00;;;;;;;10.47;8.23;;;3.40;99.90;;;;;;4995644;28;20165;-59
2022/01/07 09:45:28;;;;;;;8.43;6.40;;;3.30;99.90;;;;;;4996570;28;20412;-61
2022/01/07 09:47:54;;;;;;;8.50;7.10;;;3.50;99.90;;;;;;4987944;28;21022;-60
2022/01/07 09:50:22;;;;;;;9.90;7.43;;;3.50;99.90;;;;;;4976760;28;20445;-60
2022/01/07 09:52:47;;;;;;;9.30;7.10;;;3.50;99.90;;;;;;4976424;28;20407;-60
2022/01/07 09:55:13;;;;;;;8.07;6.87;;;3.40;99.90;;;;;;4976556;28;20503;-60
2022/01/07 09:57:39;;;;;;;7.40;6.63;;;3.40;99.90;;;;;;4978012;28;20287;-60
2022/01/07 10:00:07;;;;;;;8.53;6.90;;;3.30;99.90;;;;;;4995902;28;20443;-59
2022/01/07 10:02:33;;;;;;;8.27;6.93;;;3.40;99.90;;;;;;4995938;28;20180;-61
2022/01/07 10:05:17;;;;;;;7.40;6.63;;;3.50;99.90;;;;;;4996008;28;20791;-60
2022/01/07 10:07:43;;;;;;;9.17;6.73;;;3.60;99.90;;;;;;4995535;28;20188;-58
2022/01/07 10:10:11;;;;;;;7.50;6.60;;;3.60;99.90;;;;;;4995829;28;20473;-59
2022/01/07 10:13:00;;;;;;;8.90;6.50;;;3.60;99.90;;;;;;4995394;28;20439;-61
2022/01/07 10:15:29;;;;;;;8.87;7.30;;;3.40;99.90;;;;;;4995691;28;20459;-61
2022/01/07 10:18:02;;;;;;;10.07;7.63;;;3.50;99.90;;;;;;4995354;28;20467;-60
2022/01/07 10:20:33;;;;;;;8.10;6.73;;;3.40;99.90;;;;;;4995478;28;20931;-60
2022/01/07 10:23:08;;;;;;;14.30;7.63;;;3.40;99.90;;;;;;4995398;28;20387;-60
2022/01/07 10:25:40;;;;;;;9.33;6.73;;;3.40;99.90;;;;;;4995417;28;20474;-61
2022/01/07 10:28:12;;;;;;;9.27;6.70;;;3.30;99.90;;;;;;4994419;28;20427;-58
2022/01/07 10:30:40;;;;;;;9.50;7.93;;;3.40;99.90;;;;;;4995239;28;20392;-59
2022/01/07 10:33:19;;;;;;;10.20;7.83;;;3.40;99.90;;;;;;4994841;28;20538;-59
2022/01/07 10:35:47;;;;;;;8.73;7.40;;;3.50;99.90;;;;;;4995310;28;20474;-58
2022/01/07 10:38:19;;;;;;;11.90;8.93;;;3.30;99.90;;;;;;4994979;28;20780;-60
2022/01/07 10:40:47;;;;;;;9.90;8.20;;;3.30;99.90;;;;;;4994073;28;20415;-60
2022/01/07 10:43:17;;;;;;;11.37;8.53;;;3.40;99.90;;;;;;4994346;28;20915;-60
2022/01/07 10:45:46;;;;;;;8.07;7.13;;;3.50;99.90;;;;;;4994963;28;20423;-60
2022/01/07 10:48:12;;;;;;;10.73;8.70;;;3.60;99.90;;;;;;4994711;28;20450;-60
2022/01/07 10:50:59;;;;;;;11.03;8.10;;;3.70;99.90;;;;;;4994638;28;20420;-60
2022/01/07 10:53:29;;;;;;;10.97;8.10;;;3.80;99.90;;;;;;4994923;28;20452;-59
2022/01/07 10:56:00;;;;;;;10.17;8.00;;;3.50;99.90;;;;;;4994557;28;20415;-60
2022/01/07 10:58:26;;;;;;;10.70;7.60;;;3.50;99.90;;;;;;4993771;28;20454;-60
2022/01/07 11:00:52;;;;;;;8.63;7.60;;;3.50;99.90;;;;;;4994367;28;20773;-60
2022/01/07 11:03:17;;;;;;;12.23;9.30;;;3.50;99.90;;;;;;4994803;28;20411;-60
2022/01/07 11:05:43;;;;;;;12.77;8.70;;;3.30;99.90;;;;;;4994497;28;20754;-61
2022/01/07 11:08:09;;;;;;;13.00;8.53;;;3.20;99.90;;;;;;4993794;28;20195;-57
2022/01/07 11:10:36;;;;;;;11.60;8.90;;;3.30;99.90;;;;;;4994609;28;20248;-60
2022/01/07 11:13:02;;;;;;;9.73;7.63;;;3.20;99.90;;;;;;4984390;28;20185;-58
2022/01/07 11:15:28;;;;;;;10.30;8.67;;;3.30;99.90;;;;;;4966509;28;20413;-59
2022/01/07 11:17:54;;;;;;;11.77;8.10;;;3.30;99.90;;;;;;4974673;28;20433;-61
2022/01/07 11:20:24;;;;;;;12.30;8.90;;;3.20;99.90;;;;;;4974959;28;20409;-59
2022/01/07 11:22:51;;;;;;;10.97;8.57;;;3.20;99.90;;;;;;4975011;28;20537;-61
2022/01/07 11:25:17;;;;;;;9.97;8.43;;;3.30;99.90;;;;;;4974885;28;20409;-60
2022/01/07 11:27:51;;;;;;;11.10;8.73;;;3.40;99.90;;;;;;4977346;28;20502;-58
2022/01/07 11:30:23;;;;;;;13.23;8.67;;;3.40;99.90;;;;;;4993957;28;20912;-60
2022/01/07 11:32:51;;;;;;;13.30;9.70;;;3.40;99.90;;;;;;4993942;28;20459;-60
2022/01/07 11:35:19;;;;;;;11.87;8.87;;;3.40;99.90;;;;;;4993814;28;20447;-57
2022/01/07 11:37:49;;;;;;;11.90;8.70;;;3.40;99.90;;;;;;4993593;28;20491;-60
2022/01/07 11:40:30;;;;;;;12.60;9.03;;;3.40;99.90;;;;;;4994571;28;20408;-60
2022/01/07 11:42:58;;;;;;;11.47;9.07;;;3.30;99.90;;;;;;4993679;28;20410;-60
2022/01/07 11:45:29;;;;;;;9.43;7.23;;;3.30;99.90;;;;;;4988441;28;20416;-60
2022/01/07 11:48:22;;;;;;;9.57;7.87;;;3.30;99.90;;;;;;4974391;28;20440;-60
2022/01/07 11:51:10;;;;;;;10.23;8.47;;;3.30;99.90;;;;;;4974337;28;20439;-60
2022/01/07 11:53:38;;;;;;;10.57;8.40;;;3.40;99.90;;;;;;4974501;28;20959;-58
2022/01/07 11:56:05;;;;;;;11.47;8.50;;;3.70;99.90;;;;;;4974284;28;20463;-59
2022/01/07 11:58:41;;;;;;;11.30;8.47;;;3.70;99.90;;;;;;4982912;28;20498;-60
2022/01/07 12:01:22;;;;;;;10.97;7.97;;;4.00;99.90;;;;;;4994248;28;20935;-60
2022/01/07 12:03:52;;;;;;;8.33;7.33;;;4.20;99.90;;;;;;4976471;28;20404;-60
2022/01/07 12:06:24;;;;;;;8.60;7.70;;;4.20;99.90;;;;;;4993983;28;20396;-60
2022/01/07 12:09:21;;;;;;;9.60;8.10;;;4.30;99.90;;;;;;4993997;28;20424;-59
2022/01/07 12:11:59;;;;;;;9.90;7.40;;;4.20;99.90;;;;;;4993606;28;20396;-58
2022/01/07 12:14:38;;;;;;;12.10;7.77;;;4.00;99.90;;;;;;4993277;28;20436;-59
2022/01/07 12:17:09;;;;;;;11.23;7.67;;;4.10;99.90;;;;;;4993920;28;20391;-61
2022/01/07 12:19:58;;;;;;;8.97;8.00;;;4.20;99.90;;;;;;4993430;28;20426;-59
2022/01/07 12:22:25;;;;;;;9.43;7.67;;;4.30;99.90;;;;;;4997396;28;20399;-61
2022/01/07 12:24:57;;;;;;;7.60;6.90;;;4.20;99.90;;;;;;4997727;28;20407;-61
2022/01/07 12:27:24;;;;;;;8.50;6.90;;;4.20;99.90;;;;;;4997321;28;20851;-61
2022/01/07 12:29:58;;;;;;;9.50;7.90;;;4.10;99.90;;;;;;4997369;28;20408;-61
2022/01/07 12:32:37;;;;;;;10.27;7.37;;;4.30;99.90;;;;;;4997610;28;20722;-60
2022/01/07 12:35:09;;;;;;;7.90;6.90;;;4.10;99.90;;;;;;4997088;28;20445;-60
2022/01/07 12:37:36;;;;;;;11.63;8.87;;;4.10;99.90;;;;;;4997502;28;20788;-61
2022/01/07 12:40:04;;;;;;;7.47;6.20;;;4.10;99.90;;;;;;4997000;28;20406;-61
2022/01/07 12:42:38;;;;;;;7.50;5.60;;;4.10;99.90;;;;;;4996825;28;20487;-61
2022/01/07 12:45:05;;;;;;;9.83;7.30;;;4.10;99.90;;;;;;4996713;28;20446;-61
2022/01/07 12:47:32;;;;;;;7.20;6.13;;;4.10;99.90;;;;;;4997210;28;20500;-61
2022/01/07 12:50:00;;;;;;;8.90;6.53;;;4.20;99.90;;;;;;4997013;28;20410;-60
2022/01/07 12:52:37;;;;;;;8.20;5.60;;;4.10;99.90;;;;;;4997268;28;20408;-61
2022/01/07 12:55:08;;;;;;;8.00;6.90;;;4.30;99.90;;;;;;4997181;28;20879;-61
2022/01/07 12:57:33;;;;;;;7.53;6.20;;;4.60;99.90;;;;;;4996279;28;20467;-60
2022/01/07 13:00:09;;;;;;;7.50;5.70;;;4.80;99.90;;;;;;4996448;28;20440;-59